createdAt,value
2019-05-05T00:00:35.193Z,82.59
2019-05-05T00:02:34.626Z,82.11
2019-05-05T00:04:34.934Z,81.55
2019-05-05T00:06:09.759Z,81.74
2019-05-05T00:07:44.871Z,81.50
2019-05-05T00:09:19.543Z,82.34
2019-05-05T00:11:15.265Z,82.24
2019-05-05T00:12:59.976Z,82.44
2019-05-05T00:14:41.871Z,82.23
2019-05-05T00:16:39.273Z,82.17
2019-05-05T00:18:14.812Z,82.73
2019-05-05T00:19:49.515Z,82.34
2019-05-05T00:21:24.448Z,82.21
2019-05-05T00:22:59.146Z,81.97
2019-05-05T00:24:35.069Z,81.55
2019-05-05T00:26:10.875Z,82.38
2019-05-05T00:27:45.519Z,81.41
2019-05-05T00:29:20.526Z,81.85
2019-05-05T00:30:55.497Z,81.63
2019-05-05T00:32:30.138Z,81.88
2019-05-05T00:34:05.182Z,81.60
2019-05-05T00:35:40.299Z,80.58
2019-05-05T00:37:15.334Z,81.28
2019-05-05T00:38:50.072Z,80.95
2019-05-05T00:40:24.964Z,80.99
2019-05-05T00:41:59.585Z,81.09
2019-05-05T00:43:34.593Z,80.87
2019-05-05T00:45:09.534Z,80.30
2019-05-05T00:47:02.096Z,80.81
2019-05-05T00:48:44.524Z,80.21
2019-05-05T00:50:20.559Z,80.69
2019-05-05T00:51:55.205Z,80.69
2019-05-05T00:53:29.866Z,80.39
2019-05-05T00:55:05.210Z,81.29
2019-05-05T00:56:39.845Z,82.14
2019-05-05T00:58:14.556Z,81.30
2019-05-05T00:59:49.189Z,81.58
2019-05-05T01:01:41.354Z,81.33
2019-05-05T01:03:16.569Z,81.91
2019-05-05T01:05:19.368Z,82.71
2019-05-05T01:06:54.447Z,81.97
2019-05-05T01:08:29.648Z,82.18
2019-05-05T01:10:05.299Z,83.02
2019-05-05T01:11:39.925Z,82.14
2019-05-05T01:13:15.218Z,82.94
2019-05-05T01:14:49.848Z,83.29
2019-05-05T01:16:24.830Z,82.75
2019-05-05T01:18:02.078Z,82.65
2019-05-05T01:19:35.906Z,82.07
2019-05-05T01:21:10.546Z,82.46
2019-05-05T01:22:45.174Z,81.76
2019-05-05T01:24:19.812Z,82.96
2019-05-05T01:25:54.558Z,82.76
2019-05-05T01:27:29.177Z,81.25
2019-05-05T01:29:05.424Z,82.39
2019-05-05T01:30:42.160Z,82.53
2019-05-05T01:32:22.124Z,82.37
2019-05-05T01:34:27.798Z,82.98
2019-05-05T01:36:04.536Z,83.33
2019-05-05T01:37:51.006Z,83.13
2019-05-05T01:39:45.255Z,83.26
2019-05-05T01:41:31.743Z,83.30
2019-05-05T01:43:06.386Z,83.24
2019-05-05T01:44:41.020Z,83.25
2019-05-05T01:46:15.674Z,83.69
2019-05-05T01:47:50.300Z,83.22
2019-05-05T01:49:25.348Z,83.21
2019-05-05T01:51:00.071Z,83.54
2019-05-05T01:52:34.718Z,83.76
2019-05-05T01:54:09.348Z,83.98
2019-05-05T01:55:45.175Z,84.15
2019-05-05T01:57:20.223Z,84.12
2019-05-05T01:58:55.359Z,84.61
2019-05-05T02:00:30.008Z,84.62
2019-05-05T02:02:04.974Z,84.58
2019-05-05T02:03:39.978Z,84.04
2019-05-05T02:05:14.891Z,84.11
2019-05-05T02:06:49.604Z,84.25
2019-05-05T02:08:24.550Z,84.74
2019-05-05T02:09:59.335Z,84.47
2019-05-05T02:11:35.294Z,84.66
2019-05-05T02:13:10.170Z,84.89
2019-05-05T02:14:44.915Z,84.46
2019-05-05T02:16:19.939Z,84.75
2019-05-05T02:17:55.096Z,84.29
2019-05-05T02:19:29.784Z,84.29
2019-05-05T02:21:06.120Z,84.44
2019-05-05T02:22:40.742Z,84.31
2019-05-05T02:24:15.401Z,84.19
2019-05-05T02:25:50.109Z,84.39
2019-05-05T02:27:25.365Z,84.00
2019-05-05T02:29:14.127Z,83.58
2019-05-05T02:31:06.122Z,83.65
2019-05-05T02:32:45.381Z,83.33
2019-05-05T02:34:20.006Z,83.49
2019-05-05T02:35:55.618Z,82.27
2019-05-05T02:37:30.620Z,82.58
2019-05-05T02:39:08.975Z,82.16
2019-05-05T02:40:45.222Z,80.95
2019-05-05T02:42:24.763Z,81.14
2019-05-05T02:43:58.608Z,80.57
2019-05-05T02:45:49.106Z,80.78
2019-05-05T02:47:34.825Z,80.90
2019-05-05T02:49:10.432Z,79.95
2019-05-05T02:51:00.024Z,80.05
2019-05-05T02:52:34.521Z,78.67
2019-05-05T02:54:08.090Z,79.48
2019-05-05T02:55:44.234Z,79.05
2019-05-05T02:57:19.145Z,78.65
2019-05-05T02:58:56.062Z,78.49
2019-05-05T03:01:04.779Z,79.61
2019-05-05T03:02:39.248Z,79.28
2019-05-05T03:04:14.307Z,78.61
2019-05-05T03:05:49.118Z,78.29
2019-05-05T03:07:26.091Z,78.48
2019-05-05T03:09:01.290Z,78.14
2019-05-05T03:10:37.783Z,78.10
2019-05-05T03:12:14.770Z,78.64
2019-05-05T03:13:50.669Z,78.69
2019-05-05T03:15:46.724Z,77.49
2019-05-05T03:17:23.437Z,78.43
2019-05-05T03:18:58.444Z,77.12
2019-05-05T03:20:34.323Z,77.15
2019-05-05T03:22:10.590Z,76.95
2019-05-05T03:23:45.683Z,77.00
2019-05-05T03:25:20.388Z,78.01
2019-05-05T03:26:55.243Z,77.34
2019-05-05T03:28:40.708Z,78.46
2019-05-05T03:30:15.674Z,78.27
2019-05-05T03:31:51.097Z,77.71
2019-05-05T03:33:25.927Z,77.17
2019-05-05T03:35:00.660Z,77.43
2019-05-05T03:36:35.364Z,77.93
2019-05-05T03:38:10.071Z,77.14
2019-05-05T03:39:49.850Z,76.83
2019-05-05T03:41:56.071Z,77.40
2019-05-05T03:43:34.209Z,77.47
2019-05-05T03:45:19.580Z,78.25
2019-05-05T03:46:54.954Z,77.89
2019-05-05T03:48:29.669Z,77.93
2019-05-05T03:50:05.402Z,78.38
2019-05-05T03:51:40.173Z,78.41
2019-05-05T03:53:15.106Z,78.21
2019-05-05T03:54:49.828Z,79.01
2019-05-05T03:56:24.852Z,78.41
2019-05-05T03:57:59.767Z,78.47
2019-05-05T03:59:34.400Z,78.19
2019-05-05T04:01:34.719Z,79.01
2019-05-05T04:03:09.517Z,78.83
2019-05-05T04:04:47.514Z,78.31
2019-05-05T04:06:37.147Z,77.77
2019-05-05T04:08:14.369Z,77.50
2019-05-05T04:09:48.896Z,78.61
2019-05-05T04:11:23.701Z,78.38
2019-05-05T04:12:58.371Z,78.13
2019-05-05T04:14:34.741Z,77.82
2019-05-05T04:16:16.112Z,77.79
2019-05-05T04:18:19.115Z,77.66
2019-05-05T04:19:55.079Z,77.81
2019-05-05T04:21:33.762Z,77.37
2019-05-05T04:23:06.090Z,77.10
2019-05-05T04:24:40.728Z,76.29
2019-05-05T04:26:15.351Z,77.09
2019-05-05T04:27:50.002Z,76.10
2019-05-05T04:29:24.623Z,75.76
2019-05-05T04:30:59.305Z,75.65
2019-05-05T04:32:34.818Z,75.32
2019-05-05T04:34:09.579Z,75.04
2019-05-05T04:35:44.547Z,74.84
2019-05-05T04:37:19.318Z,73.56
2019-05-05T04:38:54.672Z,68.77
2019-05-05T04:40:29.413Z,58.86
2019-05-05T04:42:04.724Z,55.89
2019-05-05T04:43:39.672Z,54.39
2019-05-05T04:45:15.009Z,55.05
2019-05-05T04:46:54.469Z,53.86
2019-05-05T04:48:35.370Z,48.18
2019-05-05T04:50:18.344Z,44.45
2019-05-05T04:51:53.928Z,43.80
2019-05-05T04:53:47.786Z,43.96
2019-05-05T04:55:24.349Z,39.53
2019-05-05T04:56:59.720Z,39.46
2019-05-05T04:58:34.409Z,41.98
2019-05-05T05:00:09.503Z,39.62
2019-05-05T05:01:44.529Z,37.25
2019-05-05T05:03:38.185Z,45.15
2019-05-05T05:05:24.497Z,49.50
2019-05-05T05:06:59.515Z,54.79
2019-05-05T05:08:34.192Z,53.13
2019-05-05T05:10:09.006Z,55.14
2019-05-05T05:11:44.298Z,53.45
2019-05-05T05:13:19.092Z,53.44
2019-05-05T05:14:54.654Z,53.44
2019-05-05T05:16:29.448Z,56.95
2019-05-05T05:18:14.796Z,58.42
2019-05-05T05:19:50.674Z,60.98
2019-05-05T05:21:25.305Z,60.08
2019-05-05T05:22:59.936Z,60.11
2019-05-05T05:24:34.568Z,60.36
2019-05-05T05:26:09.213Z,60.82
2019-05-05T05:27:44.438Z,62.46
2019-05-05T05:29:19.141Z,61.12
2019-05-05T05:30:54.675Z,59.42
2019-05-05T05:32:30.281Z,60.48
2019-05-05T05:34:04.978Z,59.46
2019-05-05T05:35:39.596Z,53.44
2019-05-05T05:37:14.240Z,47.04
2019-05-05T05:38:50.812Z,44.60
2019-05-05T05:40:48.671Z,36.75
2019-05-05T05:42:24.168Z,35.34
2019-05-05T05:44:05.810Z,32.40
2019-05-05T05:45:49.568Z,30.90
2019-05-05T05:47:44.182Z,28.67
2019-05-05T05:49:40.977Z,30.18
2019-05-05T05:51:19.456Z,30.18
2019-05-05T05:52:54.276Z,30.05
2019-05-05T05:54:28.913Z,29.49
2019-05-05T05:56:04.322Z,30.73
2019-05-05T05:57:40.080Z,28.65
2019-05-05T05:59:14.716Z,27.70
2019-05-05T06:00:49.346Z,27.44
2019-05-05T06:02:24.285Z,29.24
2019-05-05T06:03:58.992Z,30.06
2019-05-05T06:05:34.532Z,28.22
2019-05-05T06:07:09.189Z,26.55
2019-05-05T06:08:44.138Z,25.28
2019-05-05T06:10:24.223Z,28.97
2019-05-05T06:11:55.277Z,26.41
2019-05-05T06:13:29.927Z,24.30
2019-05-05T06:15:05.000Z,23.12
2019-05-05T06:16:39.617Z,23.48
2019-05-05T06:18:14.336Z,21.67
2019-05-05T06:19:48.956Z,24.41
2019-05-05T06:21:24.316Z,24.08
2019-05-05T06:22:58.967Z,23.61
2019-05-05T06:24:34.592Z,22.03
2019-05-05T06:26:09.452Z,23.37
2019-05-05T06:27:44.602Z,23.47
2019-05-05T06:29:19.318Z,21.74
2019-05-05T06:30:54.910Z,23.48
2019-05-05T06:32:29.556Z,23.80
2019-05-05T06:34:04.201Z,24.05
2019-05-05T06:35:38.856Z,22.95
2019-05-05T06:37:14.499Z,22.43
2019-05-05T06:38:50.384Z,23.14
2019-05-05T06:40:48.355Z,22.16
2019-05-05T06:42:44.983Z,21.60
2019-05-05T06:44:28.472Z,24.46
2019-05-05T06:46:04.519Z,20.71
2019-05-05T06:47:41.945Z,20.02
2019-05-05T06:49:16.600Z,22.52
2019-05-05T06:50:51.252Z,21.42
2019-05-05T06:52:25.883Z,23.03
2019-05-05T06:54:00.638Z,21.18
2019-05-05T06:55:35.289Z,21.79
2019-05-05T06:57:09.932Z,21.21
2019-05-05T06:58:44.961Z,21.69
2019-05-05T07:00:19.649Z,20.50
2019-05-05T07:01:54.295Z,20.67
2019-05-05T07:03:28.928Z,21.53
2019-05-05T07:05:04.636Z,22.23
2019-05-05T07:06:51.777Z,19.65
2019-05-05T07:08:15.604Z,22.11
2019-05-05T07:09:50.245Z,23.36
2019-05-05T07:11:24.905Z,24.14
2019-05-05T07:12:59.505Z,22.68
2019-05-05T07:14:35.144Z,21.32
2019-05-05T07:16:12.305Z,21.63
2019-05-05T07:17:46.175Z,19.44
2019-05-05T07:19:20.814Z,22.25
2019-05-05T07:20:55.444Z,20.25
2019-05-05T07:22:30.460Z,20.23
2019-05-05T07:24:05.247Z,20.86
2019-05-05T07:25:43.228Z,21.47
2019-05-05T07:27:16.261Z,21.21
2019-05-05T07:28:50.893Z,22.06
2019-05-05T07:30:25.522Z,21.87
2019-05-05T07:32:00.265Z,19.57
2019-05-05T07:33:34.981Z,22.69
2019-05-05T07:35:28.707Z,22.83
2019-05-05T07:37:03.911Z,24.05
2019-05-05T07:38:38.757Z,22.73
2019-05-05T07:40:13.748Z,22.62
2019-05-05T07:41:48.376Z,20.57
2019-05-05T07:43:23.956Z,21.24
2019-05-05T07:44:58.717Z,21.99
2019-05-05T07:46:34.621Z,19.90
2019-05-05T07:48:09.523Z,21.46
2019-05-05T07:49:44.291Z,20.63
2019-05-05T07:51:18.977Z,22.55
2019-05-05T07:52:54.609Z,21.78
2019-05-05T07:54:29.431Z,20.90
2019-05-05T07:56:07.486Z,22.31
2019-05-05T07:57:40.486Z,22.28
2019-05-05T07:59:15.147Z,22.37
2019-05-05T08:00:49.789Z,20.77
2019-05-05T08:02:24.753Z,22.29
2019-05-05T08:04:00.455Z,22.99
2019-05-05T08:05:35.162Z,22.68
2019-05-05T08:07:09.815Z,22.79
2019-05-05T08:08:44.526Z,22.78
2019-05-05T08:10:19.250Z,24.66
2019-05-05T08:11:54.309Z,22.10
2019-05-05T08:13:28.989Z,22.03
2019-05-05T08:15:04.493Z,21.72
2019-05-05T08:17:01.427Z,21.43
2019-05-05T08:19:00.899Z,21.61
2019-05-05T08:20:38.755Z,23.99
2019-05-05T08:22:14.124Z,24.34
2019-05-05T08:24:09.608Z,22.13
2019-05-05T08:26:01.325Z,23.72
2019-05-05T08:27:58.685Z,23.06
2019-05-05T08:29:36.733Z,23.22
2019-05-05T08:31:19.237Z,23.70
2019-05-05T08:32:54.604Z,24.61
2019-05-05T08:34:29.380Z,22.87
2019-05-05T08:36:04.715Z,25.73
2019-05-05T08:37:39.493Z,28.89
2019-05-05T08:39:14.392Z,32.94
2019-05-05T08:40:49.064Z,29.32
2019-05-05T08:42:24.667Z,28.58
2019-05-05T08:43:59.461Z,28.12
2019-05-05T08:45:34.976Z,27.99
2019-05-05T08:47:10.896Z,28.14
2019-05-05T08:48:45.607Z,27.72
2019-05-05T08:50:20.284Z,27.38
2019-05-05T08:51:54.990Z,25.70
2019-05-05T08:53:41.663Z,25.94
2019-05-05T08:55:06.200Z,28.70
2019-05-05T08:56:40.821Z,29.63
2019-05-05T08:58:15.804Z,28.67
2019-05-05T08:59:50.446Z,32.55
2019-05-05T09:01:25.067Z,32.84
2019-05-05T09:02:59.749Z,29.74
2019-05-05T09:04:34.380Z,28.31
2019-05-05T09:06:09.049Z,32.62
2019-05-05T09:07:44.227Z,33.70
2019-05-05T09:09:18.912Z,32.12
2019-05-05T09:10:55.183Z,30.60
2019-05-05T09:12:30.060Z,31.30
2019-05-05T09:14:06.467Z,32.35
2019-05-05T09:15:41.085Z,33.74
2019-05-05T09:17:15.801Z,32.46
2019-05-05T09:19:04.205Z,31.62
2019-05-05T09:20:38.988Z,32.12
2019-05-05T09:22:14.062Z,32.61
2019-05-05T09:23:59.013Z,34.09
2019-05-05T09:25:44.707Z,32.17
2019-05-05T09:27:53.584Z,32.04
2019-05-05T09:29:36.436Z,30.90
2019-05-05T09:31:16.713Z,29.53
2019-05-05T09:32:51.348Z,29.14
2019-05-05T09:34:26.014Z,30.27
2019-05-05T09:36:00.846Z,32.09
2019-05-05T09:37:35.765Z,28.21
2019-05-05T09:39:10.499Z,29.31
2019-05-05T09:40:45.229Z,30.20
2019-05-05T09:42:20.177Z,30.04
2019-05-05T09:43:55.870Z,28.65
2019-05-05T09:45:30.505Z,28.54
2019-05-05T09:47:05.338Z,30.74
2019-05-05T09:48:39.976Z,32.02
2019-05-05T09:50:15.260Z,32.29
2019-05-05T09:51:49.906Z,32.37
2019-05-05T09:53:27.244Z,32.98
2019-05-05T09:55:01.055Z,29.45
2019-05-05T09:56:35.965Z,27.54
2019-05-05T09:58:10.600Z,27.89
2019-05-05T09:59:45.227Z,29.43
2019-05-05T10:01:19.866Z,30.83
2019-05-05T10:02:54.606Z,30.63
2019-05-05T10:04:30.848Z,27.34
2019-05-05T10:06:05.579Z,26.31
2019-05-05T10:07:40.637Z,29.35
2019-05-05T10:09:15.362Z,31.52
2019-05-05T10:10:50.046Z,33.18
2019-05-05T10:12:24.667Z,32.10
2019-05-05T10:13:59.304Z,33.33
2019-05-05T10:15:33.935Z,34.77
2019-05-05T10:17:08.575Z,32.36
2019-05-05T10:18:44.854Z,30.24
2019-05-05T10:20:19.693Z,29.27
2019-05-05T10:21:54.330Z,27.55
2019-05-05T10:23:30.851Z,26.93
2019-05-05T10:25:34.369Z,28.51
2019-05-05T10:27:09.186Z,28.60
2019-05-05T10:28:44.462Z,29.70
2019-05-05T10:30:19.139Z,28.52
2019-05-05T10:31:53.980Z,26.97
2019-05-05T10:33:28.592Z,28.32
2019-05-05T10:35:04.517Z,29.14
2019-05-05T10:36:40.820Z,29.45
2019-05-05T10:38:15.458Z,30.10
2019-05-05T10:39:52.035Z,29.75
2019-05-05T10:41:26.693Z,31.45
2019-05-05T10:43:01.331Z,33.52
2019-05-05T10:44:35.967Z,35.54
2019-05-05T10:46:10.605Z,34.39
2019-05-05T10:47:45.257Z,33.57
2019-05-05T10:49:19.917Z,34.16
2019-05-05T10:50:54.546Z,34.16
2019-05-05T10:52:29.335Z,33.81
2019-05-05T10:54:04.163Z,33.25
2019-05-05T10:55:38.885Z,34.02
2019-05-05T10:57:14.842Z,32.31
2019-05-05T10:58:49.926Z,31.21
2019-05-05T11:00:45.576Z,31.37
2019-05-05T11:02:20.223Z,30.59
2019-05-05T11:03:54.873Z,30.51
2019-05-05T11:05:29.503Z,30.46
2019-05-05T11:07:04.411Z,30.26
2019-05-05T11:08:39.128Z,30.25
2019-05-05T11:10:15.546Z,30.67
2019-05-05T11:11:50.176Z,32.94
2019-05-05T11:13:24.897Z,33.39
2019-05-05T11:14:59.678Z,35.33
2019-05-05T11:16:34.403Z,37.29
2019-05-05T11:18:09.317Z,39.15
2019-05-05T11:19:44.275Z,38.64
2019-05-05T11:21:19.061Z,38.59
2019-05-05T11:22:54.222Z,39.28
2019-05-05T11:24:28.953Z,37.81
2019-05-05T11:26:03.660Z,38.54
2019-05-05T11:27:38.295Z,37.63
2019-05-05T11:29:13.550Z,37.95
2019-05-05T11:30:48.749Z,38.13
2019-05-05T11:32:44.090Z,38.70
2019-05-05T11:34:25.536Z,38.17
2019-05-05T11:36:04.541Z,38.67
2019-05-05T11:37:39.336Z,37.31
2019-05-05T11:39:14.832Z,36.37
2019-05-05T11:40:49.570Z,35.42
2019-05-05T11:42:24.267Z,34.54
2019-05-05T11:43:58.933Z,34.60
2019-05-05T11:45:34.478Z,32.92
2019-05-05T11:47:09.228Z,32.11
2019-05-05T11:48:44.089Z,33.74
2019-05-05T11:50:18.922Z,34.18
2019-05-05T11:51:54.348Z,32.75
2019-05-05T11:53:30.133Z,34.39
2019-05-05T11:55:11.569Z,33.90
2019-05-05T11:56:41.295Z,33.49
2019-05-05T11:58:16.008Z,34.20
2019-05-05T11:59:51.015Z,34.28
2019-05-05T12:01:26.411Z,35.21
2019-05-05T12:03:01.041Z,36.63
2019-05-05T12:04:35.668Z,36.52
2019-05-05T12:06:10.430Z,36.72
2019-05-05T12:07:45.126Z,35.76
2019-05-05T12:09:26.925Z,35.30
2019-05-05T12:11:06.473Z,34.86
2019-05-05T12:12:41.145Z,35.62
2019-05-05T12:14:17.627Z,36.03
2019-05-05T12:15:58.754Z,36.80
2019-05-05T12:17:35.171Z,36.41
2019-05-05T12:19:13.710Z,36.96
2019-05-05T12:20:48.560Z,36.96
2019-05-05T12:22:23.639Z,36.93
2019-05-05T12:24:00.833Z,37.07
2019-05-05T12:26:04.745Z,36.65
2019-05-05T12:27:57.472Z,36.44
2019-05-05T12:29:40.152Z,37.43
2019-05-05T12:31:19.451Z,35.21
2019-05-05T12:32:55.327Z,33.68
2019-05-05T12:34:30.018Z,34.42
2019-05-05T12:36:05.039Z,34.26
2019-05-05T12:37:39.704Z,33.82
2019-05-05T12:39:15.041Z,34.89
2019-05-05T12:40:49.762Z,35.66
2019-05-05T12:42:24.469Z,35.66
2019-05-05T12:43:59.597Z,36.18
2019-05-05T12:45:35.981Z,36.35
2019-05-05T12:47:28.597Z,36.94
2019-05-05T12:49:04.958Z,36.94
2019-05-05T12:50:40.587Z,37.86
2019-05-05T12:52:16.261Z,39.26
2019-05-05T12:53:51.000Z,39.04
2019-05-05T12:55:39.144Z,39.06
2019-05-05T12:57:04.248Z,36.71
2019-05-05T12:58:38.456Z,37.63
2019-05-05T13:00:14.661Z,38.51
2019-05-05T13:01:50.342Z,39.01
2019-05-05T13:03:24.989Z,38.59
2019-05-05T13:04:59.658Z,38.70
2019-05-05T13:06:34.715Z,40.00
2019-05-05T13:08:09.437Z,40.58
2019-05-05T13:09:44.220Z,40.58
2019-05-05T13:11:20.234Z,40.02
2019-05-05T13:12:55.311Z,40.82
2019-05-05T13:14:29.952Z,41.25
2019-05-05T13:16:04.696Z,41.63
2019-05-05T13:17:39.347Z,42.70
2019-05-05T13:19:26.153Z,42.17
2019-05-05T13:21:07.582Z,42.47
2019-05-05T13:23:01.323Z,42.10
2019-05-05T13:24:57.650Z,42.37
2019-05-05T13:26:38.239Z,41.27
2019-05-05T13:28:14.529Z,40.81
2019-05-05T13:30:06.119Z,40.82
2019-05-05T13:31:44.065Z,41.21
2019-05-05T13:33:18.317Z,43.69
2019-05-05T13:34:54.589Z,44.13
2019-05-05T13:36:30.060Z,45.22
2019-05-05T13:38:04.703Z,45.06
2019-05-05T13:39:39.352Z,45.35
2019-05-05T13:41:16.149Z,43.99
2019-05-05T13:42:50.864Z,44.55
2019-05-05T13:44:43.586Z,44.92
2019-05-05T13:46:21.715Z,45.29
2019-05-05T13:47:56.337Z,45.66
2019-05-05T13:49:35.618Z,46.64
2019-05-05T13:51:10.456Z,48.53
2019-05-05T13:52:45.113Z,48.53
2019-05-05T13:54:19.772Z,48.56
2019-05-05T13:56:08.559Z,49.73
2019-05-05T13:57:30.821Z,48.89
2019-05-05T13:59:05.601Z,49.29
2019-05-05T14:00:40.588Z,48.65
2019-05-05T14:02:15.391Z,48.69
2019-05-05T14:03:50.304Z,49.06
2019-05-05T14:05:24.951Z,48.34
2019-05-05T14:06:59.921Z,48.34
2019-05-05T14:08:36.382Z,47.33
2019-05-05T14:10:11.425Z,47.08
2019-05-05T14:11:46.271Z,46.90
2019-05-05T14:13:20.925Z,47.05
2019-05-05T14:14:55.648Z,48.21
2019-05-05T14:16:31.361Z,51.25
2019-05-05T14:18:06.425Z,52.21
2019-05-05T14:19:41.255Z,52.21
2019-05-05T14:21:16.032Z,53.49
2019-05-05T14:22:51.315Z,53.49
2019-05-05T14:24:51.114Z,54.04
2019-05-05T14:26:28.451Z,53.44
2019-05-05T14:28:03.776Z,53.21
2019-05-05T14:29:52.916Z,53.21
2019-05-05T14:31:33.725Z,52.83
2019-05-05T14:33:11.617Z,52.20
2019-05-05T14:34:51.002Z,51.19
2019-05-05T14:36:38.397Z,51.19
2019-05-05T14:38:18.503Z,53.34
2019-05-05T14:39:54.532Z,54.47
2019-05-05T14:41:29.327Z,54.84
2019-05-05T14:43:04.495Z,55.99
2019-05-05T14:44:39.207Z,55.99
2019-05-05T14:46:14.502Z,58.70
2019-05-05T14:47:49.571Z,58.66
2019-05-05T14:49:24.703Z,58.66
2019-05-05T14:50:59.444Z,57.96
2019-05-05T14:52:34.099Z,54.96
2019-05-05T14:54:10.810Z,51.02
2019-05-05T14:55:45.558Z,51.02
2019-05-05T14:57:24.489Z,54.95
2019-05-05T14:58:59.326Z,52.40
2019-05-05T15:00:34.125Z,51.45
2019-05-05T15:02:08.774Z,51.45
2019-05-05T15:03:44.459Z,50.68
2019-05-05T15:05:37.264Z,50.68
2019-05-05T15:07:24.428Z,50.37
2019-05-05T15:09:09.312Z,49.59
2019-05-05T15:10:54.712Z,49.59
2019-05-05T15:12:38.544Z,49.18
2019-05-05T15:14:13.847Z,48.73
2019-05-05T15:15:48.655Z,50.28
2019-05-05T15:17:24.612Z,49.17
2019-05-05T15:18:59.418Z,49.17
2019-05-05T15:20:36.511Z,48.01
2019-05-05T15:22:10.467Z,48.18
2019-05-05T15:23:45.092Z,47.50
2019-05-05T15:25:19.771Z,47.50
2019-05-05T15:26:55.120Z,48.30
2019-05-05T15:28:29.920Z,48.34
2019-05-05T15:30:05.182Z,48.86
2019-05-05T15:31:39.838Z,48.61
2019-05-05T15:33:14.596Z,49.16
2019-05-05T15:34:49.251Z,49.71
2019-05-05T15:36:24.963Z,49.25
2019-05-05T15:37:59.658Z,49.69
2019-05-05T15:39:34.382Z,50.28
2019-05-05T15:41:09.174Z,48.96
2019-05-05T15:42:44.082Z,48.45
2019-05-05T15:44:19.756Z,48.86
2019-05-05T15:45:54.584Z,49.83
2019-05-05T15:47:29.677Z,49.83
2019-05-05T15:49:04.396Z,50.21
2019-05-05T15:50:39.193Z,48.04
2019-05-05T15:52:13.881Z,48.04
2019-05-05T15:53:54.339Z,48.06
2019-05-05T15:55:29.568Z,48.01
2019-05-05T15:57:07.842Z,48.01
2019-05-05T15:58:40.657Z,48.02
2019-05-05T16:00:15.420Z,48.02
2019-05-05T16:01:50.083Z,48.02
2019-05-05T16:03:24.736Z,49.34
2019-05-05T16:04:59.523Z,49.34
2019-05-05T16:06:34.539Z,48.60
2019-05-05T16:08:09.330Z,49.09
2019-05-05T16:09:46.748Z,49.09
2019-05-05T16:11:20.416Z,49.08
2019-05-05T16:12:55.064Z,48.16
2019-05-05T16:14:36.915Z,48.25
2019-05-05T16:16:24.651Z,48.25
2019-05-05T16:18:17.116Z,49.33
2019-05-05T16:19:55.569Z,48.50
2019-05-05T16:21:50.563Z,49.26
2019-05-05T16:23:29.586Z,49.26
2019-05-05T16:25:14.107Z,49.82
2019-05-05T16:26:49.171Z,50.83
2019-05-05T16:28:25.197Z,48.98
2019-05-05T16:29:59.937Z,48.42
2019-05-05T16:31:34.599Z,48.42
2019-05-05T16:33:09.377Z,47.62
2019-05-05T16:34:44.042Z,48.05
2019-05-05T16:36:18.763Z,48.07
2019-05-05T16:37:54.524Z,48.07
2019-05-05T16:39:29.236Z,47.32
2019-05-05T16:41:03.954Z,47.57
2019-05-05T16:42:38.676Z,46.82
2019-05-05T16:44:14.124Z,46.43
2019-05-05T16:45:49.916Z,47.21
2019-05-05T16:47:24.575Z,46.88
2019-05-05T16:48:59.363Z,46.85
2019-05-05T16:50:36.831Z,46.37
2019-05-05T16:52:17.329Z,46.37
2019-05-05T16:53:53.880Z,45.95
2019-05-05T16:55:34.472Z,46.78
2019-05-05T16:57:09.153Z,46.78
2019-05-05T16:58:45.119Z,46.72
2019-05-05T17:00:21.654Z,46.78
2019-05-05T17:01:56.393Z,46.78
2019-05-05T17:03:31.060Z,47.04
2019-05-05T17:05:06.275Z,47.04
2019-05-05T17:06:40.948Z,46.69
2019-05-05T17:08:15.608Z,46.45
2019-05-05T17:10:01.553Z,46.45
2019-05-05T17:11:37.949Z,45.88
2019-05-05T17:13:30.516Z,46.09
2019-05-05T17:15:37.362Z,46.09
2019-05-05T17:17:31.102Z,46.21
2019-05-05T17:19:14.065Z,45.28
2019-05-05T17:20:54.134Z,45.62
2019-05-05T17:22:39.070Z,45.62
2019-05-05T17:24:14.132Z,45.13
2019-05-05T17:25:48.930Z,45.65
2019-05-05T17:27:23.764Z,45.60
2019-05-05T17:28:58.479Z,46.05
2019-05-05T17:30:34.114Z,46.64
2019-05-05T17:32:09.051Z,47.20
2019-05-05T17:33:44.253Z,47.20
2019-05-05T17:35:19.889Z,47.55
2019-05-05T17:36:54.536Z,48.21
2019-05-05T17:38:29.179Z,48.50
2019-05-05T17:40:11.136Z,48.59
2019-05-05T17:42:03.911Z,49.41
2019-05-05T17:43:54.222Z,49.41
2019-05-05T17:45:47.925Z,48.78
2019-05-05T17:47:41.581Z,48.77
2019-05-05T17:49:27.985Z,48.76
2019-05-05T17:51:09.220Z,48.76
2019-05-05T17:52:50.661Z,48.80
2019-05-05T17:54:50.550Z,48.69
2019-05-05T17:56:25.181Z,48.71
2019-05-05T17:58:02.607Z,48.95
2019-05-05T17:59:36.244Z,48.18
2019-05-05T18:01:10.941Z,48.18
2019-05-05T18:02:45.572Z,47.83
2019-05-05T18:04:20.439Z,47.26
2019-05-05T18:06:14.340Z,48.13
2019-05-05T18:07:49.638Z,47.94
2019-05-05T18:09:49.533Z,48.18
2019-05-05T18:11:36.503Z,47.47
2019-05-05T18:13:35.050Z,48.13
2019-05-05T18:15:35.517Z,48.05
2019-05-05T18:17:10.305Z,48.73
2019-05-05T18:18:45.072Z,49.27
2019-05-05T18:20:19.729Z,49.52
2019-05-05T18:21:54.841Z,49.72
2019-05-05T18:23:29.663Z,49.76
2019-05-05T18:25:04.590Z,50.29
2019-05-05T18:26:39.206Z,50.81
2019-05-05T18:28:19.649Z,50.50
2019-05-05T18:29:51.125Z,50.53
2019-05-05T18:31:25.798Z,51.14
2019-05-05T18:33:00.409Z,51.60
2019-05-05T18:34:35.027Z,51.89
2019-05-05T18:36:09.675Z,51.93
2019-05-05T18:37:44.310Z,52.56
2019-05-05T18:39:19.014Z,52.98
2019-05-05T18:40:54.942Z,52.66
2019-05-05T18:42:29.584Z,52.91
2019-05-05T18:44:15.192Z,53.82
2019-05-05T18:46:01.002Z,53.48
2019-05-05T18:47:35.649Z,54.24
2019-05-05T18:49:10.287Z,53.70
2019-05-05T18:50:44.914Z,54.14
2019-05-05T18:52:19.652Z,53.77
2019-05-05T18:53:55.062Z,54.34
2019-05-05T18:55:29.823Z,54.07
2019-05-05T18:57:05.361Z,54.32
2019-05-05T18:58:40.003Z,52.53
2019-05-05T19:00:21.279Z,52.56
2019-05-05T19:02:08.782Z,52.58
2019-05-05T19:04:04.062Z,52.88
2019-05-05T19:05:53.525Z,52.91
2019-05-05T19:07:38.798Z,52.57
2019-05-05T19:09:17.918Z,53.02
2019-05-05T19:10:54.182Z,53.43
2019-05-05T19:12:29.008Z,53.39
2019-05-05T19:14:03.734Z,53.54
2019-05-05T19:15:38.427Z,54.18
2019-05-05T19:17:14.196Z,53.71
2019-05-05T19:18:48.861Z,54.21
2019-05-05T19:20:44.473Z,54.81
2019-05-05T19:22:18.928Z,55.28
2019-05-05T19:23:54.283Z,55.55
2019-05-05T19:25:29.164Z,55.62
2019-05-05T19:27:03.814Z,56.10
2019-05-05T19:28:44.392Z,55.90
2019-05-05T19:30:16.267Z,55.42
2019-05-05T19:31:50.901Z,54.77
2019-05-05T19:33:25.544Z,54.49
2019-05-05T19:35:00.206Z,54.50
2019-05-05T19:36:34.841Z,54.55
2019-05-05T19:38:09.430Z,54.71
2019-05-05T19:39:44.083Z,54.95
2019-05-05T19:41:18.965Z,54.32
2019-05-05T19:42:53.970Z,54.82
2019-05-05T19:44:28.626Z,55.22
2019-05-05T19:46:05.887Z,55.69
2019-05-05T19:47:40.784Z,55.93
2019-05-05T19:49:16.675Z,55.85
2019-05-05T19:50:54.655Z,56.03
2019-05-05T19:52:29.401Z,56.70
2019-05-05T19:54:04.124Z,56.79
2019-05-05T19:55:38.824Z,56.42
2019-05-05T19:57:14.447Z,56.19
2019-05-05T19:58:59.307Z,56.09
2019-05-05T20:00:26.299Z,55.85
2019-05-05T20:02:03.441Z,55.92
2019-05-05T20:03:37.927Z,56.08
2019-05-05T20:05:13.789Z,56.31
2019-05-05T20:06:48.524Z,56.32
2019-05-05T20:08:24.075Z,56.25
2019-05-05T20:12:26.706Z,56.45
2019-05-05T20:14:08.549Z,56.63
2019-05-05T20:15:44.336Z,56.68
2019-05-05T20:17:27.263Z,56.88
2019-05-05T20:19:04.075Z,57.15
2019-05-05T20:20:38.258Z,57.55
2019-05-05T20:22:14.639Z,57.39
2019-05-05T20:23:49.530Z,57.90
2019-05-05T20:25:24.522Z,58.50
2019-05-05T20:27:00.386Z,58.62
2019-05-05T20:28:35.092Z,58.97
2019-05-05T20:30:09.966Z,59.38
2019-05-05T20:31:44.772Z,59.74
2019-05-05T20:33:33.690Z,60.20
2019-05-05T20:35:16.814Z,59.46
2019-05-05T20:37:08.252Z,59.86
2019-05-05T20:38:45.381Z,60.70
2019-05-05T20:40:24.335Z,60.87
2019-05-05T20:41:58.294Z,61.41
2019-05-05T20:43:32.932Z,61.97
2019-05-05T20:45:09.401Z,62.74
2019-05-05T20:46:44.101Z,62.95
2019-05-05T20:48:18.746Z,63.72
2019-05-05T20:49:54.009Z,63.71
2019-05-05T20:51:28.723Z,63.74
2019-05-05T20:53:04.854Z,63.50
2019-05-05T20:54:39.706Z,64.33
2019-05-05T20:56:15.018Z,64.48
2019-05-05T20:57:50.677Z,64.76
2019-05-05T20:59:30.657Z,64.32